This is the latest recevied weather packets stored in our database for station/object K3BAK-13. If no packets are shown the sender has not sent any weather packets the latest 10 day(s).
| Time | Temp. | Humidity | Pressure | Rain* | Wind** | Luminosity | Snow |
|---|---|---|---|---|---|---|---|
| 1778172061 | 13.33° C | 50% | 1012.6 hPa | 0 mm | - | - | - |
| 1778171762 | 13.33° C | 50% | 1012.7 hPa | 0 mm | - | - | - |
| 1778171463 | 13.33° C | 51% | 1012.7 hPa | 0 mm | - | - | - |
| 1778169958 | 12.78° C | 49% | 1013 hPa | 0 mm | - | - | - |
| 1778169062 | 12.78° C | 51% | 1013.1 hPa | 0 mm | - | - | - |
| 1778168164 | 12.22° C | 53% | 1013.2 hPa | 0 mm | - | - | - |
| 1778167559 | 12.22° C | 52% | 1013.3 hPa | 0 mm | - | - | - |
| 1778167258 | 12.22° C | 54% | 1013.3 hPa | 0 mm | - | - | - |
| 1778166362 | 11.67° C | 52% | 1013.5 hPa | 0 mm | - | - | - |
| 1778165457 | 11.67° C | 53% | 1013.6 hPa | 0 mm | - | - | - |
| 1778165163 | 11.67° C | 54% | 1013.7 hPa | 0 mm | - | - | - |
| 1778163959 | 11.11° C | 58% | 1014 hPa | 0 mm | - | - | - |
| 1778163658 | 11.11° C | 57% | 1014 hPa | 0 mm | - | - | - |
| 1778163361 | 11.11° C | 59% | 1014.1 hPa | 0 mm | - | - | - |
| 1778160668 | 10° C | 64% | 1014.5 hPa | 0 mm | - | - | - |
| 1778159775 | 9.44° C | 66% | 1014.7 hPa | 0 mm | - | - | - |
| 1778157966 | 7.78° C | 74% | 1014.4 hPa | 0 mm | - | - | - |
| 1778154958 | 4.44° C | 95% | 1014.5 hPa | 0 mm | - | - | - |
| 1778152257 | 2.78° C | 93% | 1014.2 hPa | 0 mm | - | - | - |
| 1778150461 | 2.22° C | 93% | 1014 hPa | 0 mm | - | - | - |
| 1778147758 | 2.78° C | 91% | 1013.8 hPa | 0 mm | - | - | - |
| 1778147459 | 2.78° C | 91% | 1013.7 hPa | 0 mm | - | - | - |
| 1778146262 | 2.78° C | 91% | 1013.7 hPa | 0 mm | - | - | - |
| 1778145065 | 3.33° C | 89% | 1014 hPa | 0 mm | - | - | - |
| 1778143860 | 3.89° C | 88% | 1014 hPa | 0 mm | - | - | - |
* Rain latest hour (hover to see other rain measurements)
** Current wind speed in m/s (hover to see current wind gust speed)